Time;durP1;ratioP1;P1;durP2;ratioP2;P2;SDS_P1;SDS_P2;PMS_P1;PMS_P2;Temp;Humidity;BMP_temperature;BMP_pressure;BME280_temperature;BME280_humidity;BME280_pressure;Samples;Min_cycle;Max_cycle;Signal;HPM_P1;HPM_P2
2023/09/30 00:01:14;;;;;;;5.60;1.80;;;;;;;23.92;58.50;101836.91;21059680;28;20032;-61
2023/09/30 00:11:17;;;;;;;7.43;1.80;;;;;;;23.88;58.52;101840.53;21057610;28;20040;-61
2023/09/30 00:21:18;;;;;;;4.80;2.05;;;;;;;23.91;58.32;101856.72;21058162;28;21443;-61
2023/09/30 00:31:20;;;;;;;3.92;1.83;;;;;;;23.91;58.05;101856.72;21032994;28;20475;-60
2023/09/30 00:41:21;;;;;;;5.25;1.58;;;;;;;23.91;57.91;101867.91;21029689;28;20432;-61
2023/09/30 00:51:23;;;;;;;5.90;1.80;;;;;;;23.89;57.79;101876.59;21033360;28;20105;-62
2023/09/30 01:01:24;;;;;;;5.47;1.50;;;;;;;23.88;57.68;101890.84;21083069;28;20039;-61
2023/09/30 01:11:26;;;;;;;4.70;1.52;;;;;;;23.88;57.48;101885.25;21072255;28;20059;-61
2023/09/30 01:21:28;;;;;;;3.30;1.60;;;;;;;23.75;57.35;101872.66;21069325;28;20144;-61
2023/09/30 01:31:29;;;;;;;3.42;1.63;;;;;;;23.71;57.59;101864.00;21035381;28;20086;-61
2023/09/30 01:41:32;;;;;;;2.20;1.45;;;;;;;23.88;57.45;101896.44;21057349;28;20584;-61
2023/09/30 01:51:33;;;;;;;3.60;2.00;;;;;;;23.88;57.28;101890.84;21038468;28;20048;-61
2023/09/30 02:01:40;;;;;;;3.67;1.73;;;;;;;23.88;57.36;101888.06;21030177;28;20478;-61
2023/09/30 02:11:41;;;;;;;3.92;1.75;;;;;;;23.86;57.54;101873.50;21040944;28;20097;-62
2023/09/30 02:21:44;;;;;;;2.95;1.50;;;;;;;23.87;57.36;101878.84;21026915;28;20094;-60
2023/09/30 02:31:45;;;;;;;3.80;1.45;;;;;;;23.81;57.19;101864.00;21049768;28;20044;-63
2023/09/30 02:41:49;;;;;;;1.25;0.90;;;;;;;23.87;57.32;101866.78;21057026;28;20040;-64
2023/09/30 02:51:51;;;;;;;1.90;1.17;;;;;;;23.84;57.15;101852.28;21065396;28;20511;-60
2023/09/30 03:01:52;;;;;;;2.58;1.20;;;;;;;23.87;57.31;101855.59;21056950;28;20040;-60
2023/09/30 03:11:56;;;;;;;1.73;1.30;;;;;;;23.79;57.31;101846.69;21062673;28;20052;-59
2023/09/30 03:21:57;;;;;;;2.65;1.55;;;;;;;23.86;57.09;101865.13;21061210;28;20086;-61
2023/09/30 03:31:58;;;;;;;3.63;1.33;;;;;;;23.86;57.57;101848.34;21055217;28;20548;-61
2023/09/30 03:42:00;;;;;;;6.97;1.40;;;;;;;23.86;57.40;101843.59;21061066;28;20479;-61
2023/09/30 03:52:02;;;;;;;2.75;1.38;;;;;;;23.87;57.39;101844.44;21057725;28;20077;-63
2023/09/30 04:02:03;;;;;;;2.35;1.10;;;;;;;23.87;57.46;101844.44;21069429;28;20090;-61
2023/09/30 04:12:05;;;;;;;4.07;1.48;;;;;;;23.80;57.50;101845.56;21065633;28;20048;-62
2023/09/30 12:34:44;;;;;;;2.60;2.03;;;;;;;22.32;62.19;102037.38;21244021;27;1707316;-61
2023/09/30 12:44:46;;;;;;;5.15;2.03;;;;;;;23.14;59.24;102053.97;21159302;27;20056;-60
2023/09/30 12:54:48;;;;;;;2.40;1.73;;;;;;;23.44;58.10;102054.16;21149098;28;20040;-60
2023/09/30 13:04:49;;;;;;;3.38;2.20;;;;;;;23.57;57.84;102042.47;21194703;28;20035;-60
2023/09/30 13:14:56;;;;;;;3.15;2.40;;;;;;;23.65;57.00;102038.38;21187658;27;20077;-60
2023/09/30 13:24:57;;;;;;;6.82;2.63;;;;;;;23.69;56.85;102056.28;21197366;27;20460;-60
2023/09/30 13:34:59;;;;;;;4.47;2.15;;;;;;;23.74;56.59;102053.50;21220866;27;20040;-60
2023/09/30 13:45:00;;;;;;;7.22;2.38;;;;;;;23.78;56.31;102053.78;21156841;27;20051;-60
2023/09/30 13:55:03;;;;;;;5.22;2.97;;;;;;;23.79;56.16;102061.88;21168074;28;20043;-60
2023/09/30 14:05:05;;;;;;;3.95;2.95;;;;;;;23.81;56.14;102079.22;21168785;28;20039;-60
2023/09/30 14:15:08;;;;;;;6.00;3.13;;;;;;;23.82;56.04;102066.06;21169015;28;20398;-60
2023/09/30 14:25:09;;;;;;;5.30;3.47;;;;;;;23.84;55.95;102091.81;21132791;28;20036;-60
2023/09/30 14:35:11;;;;;;;5.35;3.63;;;;;;;23.84;55.99;102109.44;21113255;27;20052;-60
2023/09/30 14:45:12;;;;;;;8.88;4.50;;;;;;;23.83;56.10;102118.09;21131593;28;20108;-60
2023/09/30 14:55:16;;;;;;;9.82;5.65;;;;;;;23.82;56.13;102117.25;21135825;28;20479;-60
2023/09/30 15:05:18;;;;;;;11.70;4.93;;;;;;;23.80;56.14;102097.09;21162887;28;20040;-61
2023/09/30 15:15:19;;;;;;;9.65;5.60;;;;;;;23.80;56.25;102101.84;21162931;28;20039;-60
2023/09/30 15:25:20;;;;;;;10.93;5.90;;;;;;;23.84;56.05;102120.59;21160849;28;20038;-59
2023/09/30 15:35:22;;;;;;;12.20;5.88;;;;;;;23.83;56.13;102124.53;21099527;28;20048;-60
2023/09/30 15:45:24;;;;;;;7.15;5.72;;;;;;;23.84;55.97;102129.00;21130515;28;20468;-60
2023/09/30 15:55:26;;;;;;;11.35;5.55;;;;;;;23.83;55.90;102118.94;21146981;28;20464;-60
2023/09/30 16:05:27;;;;;;;10.05;6.10;;;;;;;23.82;56.10;102117.25;21151196;28;20092;-60
2023/09/30 16:15:28;;;;;;;14.13;6.50;;;;;;;23.83;56.13;102110.53;21152202;28;20043;-60
2023/09/30 16:25:32;;;;;;;9.18;6.70;;;;;;;23.83;56.10;102095.75;21130792;28;20105;-60
2023/09/30 16:35:34;;;;;;;12.27;6.82;;;;;;;23.80;56.02;102080.34;21129174;28;20489;-61
2023/09/30 16:45:35;;;;;;;7.03;5.45;;;;;;;23.86;56.15;102089.56;21119504;28;20073;-60
2023/09/30 16:55:40;;;;;;;9.77;6.28;;;;;;;23.87;55.93;102082.03;21142648;28;20479;-61
2023/09/30 17:05:42;;;;;;;8.93;6.03;;;;;;;23.88;56.08;102075.34;21128725;28;20061;-60
2023/09/30 17:15:44;;;;;;;10.38;6.30;;;;;;;23.88;56.04;102061.38;21129994;28;20105;-60
2023/09/30 17:25:48;;;;;;;12.40;6.13;;;;;;;23.88;56.08;102050.19;21145837;28;20102;-60
2023/09/30 17:35:49;;;;;;;9.45;6.43;;;;;;;23.88;55.81;102036.22;21107516;28;20055;-60
2023/09/30 17:45:51;;;;;;;8.07;5.80;;;;;;;23.86;56.13;102019.69;21160383;28;20074;-60
2023/09/30 17:55:52;;;;;;;9.07;6.05;;;;;;;23.89;55.96;102004.34;21152119;28;20097;-60
2023/09/30 18:05:54;;;;;;;9.65;6.07;;;;;;;23.89;56.16;102007.13;21159563;28;20471;-60
2023/09/30 18:16:03;;;;;;;8.57;5.90;;;;;;;23.89;56.17;102005.19;21161226;28;20032;-61
2023/09/30 18:26:04;;;;;;;8.52;6.20;;;;;;;23.91;56.09;101991.75;21162440;28;20044;-59
2023/09/30 18:36:09;;;;;;;9.45;6.03;;;;;;;23.44;56.29;101913.63;21133297;28;20432;-60
2023/09/30 18:46:12;;;;;;;7.60;6.13;;;;;;;23.91;56.27;102013.28;21146677;28;20052;-61
2023/09/30 18:56:20;;;;;;;7.32;5.63;;;;;;;23.92;56.04;101987.88;21148431;28;20051;-60
2023/09/30 19:06:22;;;;;;;8.10;6.03;;;;;;;23.95;55.81;101986.44;21146832;28;20043;-61
2023/09/30 19:16:24;;;;;;;10.00;6.70;;;;;;;23.99;55.89;101984.78;21157271;28;20421;-62
2023/09/30 19:26:25;;;;;;;7.22;5.43;;;;;;;23.99;55.85;101984.78;21160441;28;20394;-61
2023/09/30 19:36:28;;;;;;;7.07;5.45;;;;;;;23.98;55.78;102003.53;21163537;28;20069;-61
2023/09/30 19:46:32;;;;;;;10.50;6.53;;;;;;;23.94;55.80;101982.81;21163563;28;20043;-60
2023/09/30 19:56:33;;;;;;;10.65;6.28;;;;;;;24.04;55.68;102001.56;21161646;28;20089;-61
2023/09/30 20:06:36;;;;;;;8.85;6.10;;;;;;;24.06;55.52;102010.53;21162541;28;20048;-61
2023/09/30 20:16:38;;;;;;;8.43;6.22;;;;;;;24.07;55.54;102015.00;21162122;28;20047;-61
2023/09/30 20:26:42;;;;;;;7.53;5.38;;;;;;;24.07;55.47;102045.75;21161753;28;20051;-62
2023/09/30 20:36:44;;;;;;;7.85;5.45;;;;;;;24.08;55.39;102053.03;21161510;28;20020;-61
2023/09/30 20:46:47;;;;;;;8.25;6.20;;;;;;;24.09;55.54;102054.69;21160459;28;20046;-62
2023/09/30 20:56:51;;;;;;;8.18;5.53;;;;;;;24.09;55.51;102049.13;21176843;28;20093;-62
2023/09/30 21:06:53;;;;;;;7.90;5.55;;;;;;;24.10;55.37;102053.63;21176925;28;20503;-62
2023/09/30 21:16:54;;;;;;;7.22;5.60;;;;;;;24.06;55.24;102044.09;21176239;28;20088;-61
2023/09/30 21:26:56;;;;;;;9.98;6.15;;;;;;;24.08;55.19;102047.44;21174835;28;20077;-61
2023/09/30 21:37:00;;;;;;;6.80;5.30;;;;;;;24.08;55.27;102058.63;21174912;28;20049;-62
2023/09/30 21:47:02;;;;;;;7.22;5.53;;;;;;;24.08;55.15;102058.63;21173658;28;20371;-62
2023/09/30 21:57:04;;;;;;;7.32;5.28;;;;;;;24.06;55.13;102060.88;21172430;28;20054;-62
2023/09/30 22:07:07;;;;;;;7.93;5.50;;;;;;;24.03;55.29;102073.44;21171337;28;20364;-61
2023/09/30 22:17:09;;;;;;;8.32;5.82;;;;;;;24.07;55.27;102090.50;21171077;28;20470;-62
2023/09/30 22:27:11;;;;;;;8.13;5.53;;;;;;;24.05;55.21;102088.00;21169873;28;20040;-62
2023/09/30 22:37:12;;;;;;;8.20;5.78;;;;;;;24.05;55.36;102098.31;21169571;28;20406;-62
2023/09/30 22:47:13;;;;;;;7.82;5.78;;;;;;;24.03;55.14;102097.75;21167932;28;20103;-60
2023/09/30 22:57:15;;;;;;;6.72;5.03;;;;;;;24.04;55.14;102107.81;21167719;28;20089;-60
2023/09/30 23:07:18;;;;;;;7.43;4.97;;;;;;;24.03;55.25;102106.97;21166788;28;20089;-62
2023/09/30 23:17:21;;;;;;;7.75;5.13;;;;;;;24.03;55.20;102104.19;21165360;28;20043;-62
2023/09/30 23:27:22;;;;;;;6.32;4.82;;;;;;;24.04;55.19;102105.03;21164928;28;20051;-60
2023/09/30 23:37:25;;;;;;;7.00;5.22;;;;;;;24.02;55.08;102087.69;21164672;28;20112;-61
2023/09/30 23:47:26;;;;;;;5.63;4.47;;;;;;;24.02;54.93;102082.09;21163293;28;20484;-61
2023/09/30 23:57:28;;;;;;;7.50;5.43;;;;;;;24.02;55.15;102090.50;21162994;28;20498;-61
